createdAt,value
2022-09-14T00:03:35.882Z,100490.56
2022-09-14T00:08:41.970Z,100541.50
2022-09-14T00:13:47.361Z,100529.38
2022-09-14T00:18:52.520Z,100152.97
2022-09-14T00:23:55.264Z,100481.84
2022-09-14T00:29:04.316Z,100493.22
2022-09-14T00:34:09.312Z,100391.53
2022-09-14T00:39:12.261Z,100399.63
2022-09-14T00:44:52.563Z,100469.72
2022-09-14T00:49:57.449Z,100459.28
2022-09-14T00:55:02.608Z,100264.44
2022-09-14T01:00:09.705Z,100444.03
2022-09-14T01:05:14.706Z,100439.66
2022-09-14T01:10:29.449Z,100365.13
2022-09-14T01:15:41.045Z,100414.56
2022-09-14T01:20:49.046Z,100437.75
2022-09-14T01:26:29.276Z,100430.88
2022-09-14T01:31:45.776Z,100369.03
2022-09-14T01:36:52.823Z,100436.56
2022-09-14T01:41:56.953Z,100433.56
2022-09-14T01:47:06.116Z,100431.69
2022-09-14T01:52:13.907Z,100220.41
2022-09-14T01:57:22.464Z,100424.06
2022-09-14T02:02:32.429Z,100180.56
2022-09-14T02:07:35.640Z,100431.00
2022-09-14T02:12:39.128Z,100398.94
2022-09-14T02:17:43.943Z,100420.13
2022-09-14T02:22:46.757Z,100416.44
2022-09-14T02:27:49.515Z,100411.09
2022-09-14T02:33:03.656Z,100374.13
2022-09-14T02:38:15.275Z,100412.25
2022-09-14T02:43:30.333Z,100347.75
2022-09-14T02:48:41.845Z,100298.81
2022-09-14T02:53:52.571Z,100322.94
2022-09-14T02:58:55.506Z,100332.50
2022-09-14T03:03:59.547Z,100415.41
2022-09-14T03:09:02.362Z,100346.56
2022-09-14T03:14:05.044Z,100380.19
2022-09-14T03:19:10.687Z,100377.19
2022-09-14T03:30:49.388Z,100375.34
2022-09-14T03:35:53.550Z,100371.94
2022-09-14T03:40:56.312Z,100339.59
2022-09-14T03:45:58.896Z,100366.28
2022-09-14T03:51:03.613Z,100285.81
2022-09-14T03:56:08.776Z,100274.25
2022-09-14T04:01:14.460Z,100354.38
2022-09-14T04:06:20.191Z,100052.00
2022-09-14T04:11:25.002Z,100329.84
2022-09-14T04:16:29.055Z,100364.91
2022-09-14T04:21:34.076Z,100328.72
2022-09-14T04:26:36.921Z,100359.59
2022-09-14T04:31:40.101Z,100271.78
2022-09-14T04:36:44.247Z,100271.00
2022-09-14T04:41:47.427Z,100353.28
2022-09-14T04:46:50.127Z,100195.28
2022-09-14T04:51:54.278Z,100167.16
2022-09-14T04:56:56.974Z,100351.56
2022-09-14T05:01:59.759Z,100351.94
2022-09-14T05:07:03.986Z,100305.31
2022-09-14T05:12:07.316Z,100354.81
2022-09-14T05:17:11.019Z,100345.72
2022-09-14T05:22:52.500Z,100346.50
2022-09-14T05:27:55.150Z,100096.56
2022-09-14T05:32:58.241Z,100216.22
2022-09-14T05:38:04.841Z,100335.81
2022-09-14T05:43:07.640Z,100327.66
2022-09-14T05:48:10.692Z,100338.72
2022-09-14T05:53:14.811Z,100333.00
2022-09-14T05:58:17.924Z,100302.19
2022-09-14T06:03:20.652Z,100199.38
2022-09-14T06:08:24.682Z,100328.97
2022-09-14T06:13:27.706Z,100335.38
2022-09-14T06:18:32.045Z,100332.41
2022-09-14T06:23:37.223Z,100338.88
2022-09-14T06:28:40.093Z,100300.47
2022-09-14T06:33:45.691Z,100331.25
2022-09-14T06:38:50.720Z,100339.94
2022-09-14T06:44:01.009Z,100335.78
2022-09-14T06:49:06.036Z,100339.72
2022-09-14T06:54:12.728Z,100271.66
2022-09-14T06:59:17.276Z,100304.66
2022-09-14T07:04:20.109Z,100340.81
2022-09-14T07:09:25.100Z,100276.38
2022-09-14T07:14:32.009Z,100310.06
2022-09-14T07:19:35.051Z,100347.91
2022-09-14T07:24:39.349Z,100219.13
2022-09-14T07:29:41.995Z,100171.13
2022-09-14T07:34:44.644Z,100341.25
2022-09-14T07:39:49.177Z,100332.78
2022-09-14T07:44:51.934Z,100267.69
2022-09-14T07:49:54.644Z,100337.13
2022-09-14T07:54:58.696Z,100297.03
2022-09-14T08:00:01.328Z,100332.03
2022-09-14T08:05:04.582Z,100357.75
2022-09-14T08:10:09.708Z,100242.50
2022-09-14T08:15:12.400Z,100327.75
2022-09-14T08:20:16.410Z,100326.31
2022-09-14T08:25:21.551Z,100267.44
2022-09-14T08:30:24.142Z,100302.16
2022-09-14T08:35:53.598Z,100301.19
2022-09-14T08:40:51.457Z,100309.72
2022-09-14T08:46:02.565Z,100303.13
2022-09-14T08:51:07.759Z,100309.47
2022-09-14T08:56:17.701Z,100288.19
2022-09-14T09:01:26.940Z,100305.34
2022-09-14T09:06:41.954Z,100307.03
2022-09-14T09:11:50.049Z,100309.06
2022-09-14T09:16:57.288Z,100315.88
2022-09-14T09:22:03.223Z,100309.00
2022-09-14T09:27:12.226Z,100247.69
2022-09-14T09:32:17.887Z,100282.88
2022-09-14T09:37:40.692Z,100325.06
2022-09-14T09:43:06.610Z,100315.38
2022-09-14T09:48:11.011Z,100332.25
2022-09-14T09:53:17.716Z,100335.38
2022-09-14T09:58:34.485Z,100331.34
2022-09-14T10:03:38.876Z,100283.78
2022-09-14T10:08:43.907Z,100324.72
2022-09-14T10:13:48.117Z,100316.53
2022-09-14T10:18:52.873Z,100322.06
2022-09-14T10:24:19.278Z,100323.75
2022-09-14T10:29:35.655Z,100320.16
2022-09-14T10:34:38.291Z,100270.31
2022-09-14T10:39:46.438Z,100306.22
2022-09-14T10:45:13.773Z,100315.56
2022-09-14T10:50:29.168Z,100292.19
2022-09-14T10:55:42.184Z,100244.28
2022-09-14T11:00:57.249Z,100250.94
2022-09-14T11:06:12.208Z,100239.34
2022-09-14T11:11:28.006Z,100288.31
2022-09-14T11:16:54.754Z,100226.81
2022-09-14T11:22:07.862Z,100264.69
2022-09-14T11:27:24.436Z,100274.94
2022-09-14T11:32:35.094Z,100270.25
2022-09-14T11:37:41.525Z,100236.97
2022-09-14T11:42:50.758Z,100218.78
2022-09-14T11:48:00.988Z,100282.84
2022-09-14T11:53:11.165Z,100281.16
2022-09-14T11:58:20.543Z,100176.53
2022-09-14T12:03:53.500Z,100259.19
2022-09-14T12:08:56.569Z,100263.75
2022-09-14T12:14:24.604Z,100213.00
2022-09-14T12:19:28.751Z,100263.63
2022-09-14T12:24:32.646Z,100266.38
2022-09-14T12:30:03.684Z,100269.56
2022-09-14T12:35:52.365Z,100267.06
2022-09-14T12:40:57.312Z,100231.41
2022-09-14T12:46:03.591Z,100259.78
2022-09-14T12:51:06.899Z,100222.69
2022-09-14T12:56:18.983Z,100189.66
2022-09-14T13:01:32.705Z,100211.69
2022-09-14T13:06:42.232Z,100225.44
2022-09-14T13:11:49.199Z,100112.91
2022-09-14T13:16:52.830Z,100209.41
2022-09-14T13:21:56.960Z,100245.66
2022-09-14T13:27:03.157Z,100162.09
2022-09-14T13:32:07.553Z,100235.66
2022-09-14T13:37:14.454Z,100179.63
2022-09-14T13:42:19.380Z,100070.53
2022-09-14T13:47:25.892Z,100210.97
2022-09-14T13:52:50.128Z,100153.91
2022-09-14T13:58:26.999Z,100196.22
2022-09-14T14:03:33.905Z,100172.34
2022-09-14T14:08:40.881Z,99995.91
2022-09-14T14:13:47.489Z,99872.88
2022-09-14T14:18:52.782Z,100189.69
2022-09-14T14:24:31.319Z,100191.38
2022-09-14T14:29:35.831Z,100137.31
2022-09-14T14:34:40.822Z,100197.84
2022-09-14T14:39:49.433Z,99996.13
2022-09-14T14:44:53.837Z,100149.09
2022-09-14T14:49:59.568Z,100186.38
2022-09-14T14:55:02.344Z,100020.88
2022-09-14T15:00:13.086Z,100106.28
2022-09-14T15:05:16.563Z,100093.78
2022-09-14T15:10:27.568Z,100070.25
2022-09-14T15:15:34.629Z,100189.69
2022-09-14T15:20:39.356Z,100124.75
2022-09-14T15:25:42.171Z,100144.56
2022-09-14T15:30:49.301Z,100139.81
2022-09-14T15:35:56.270Z,99994.91
2022-09-14T15:41:00.302Z,99971.59
2022-09-14T15:46:06.003Z,100211.81
2022-09-14T15:51:13.140Z,99838.00
2022-09-14T15:56:17.291Z,100059.88
2022-09-14T16:01:28.035Z,99965.19
2022-09-14T16:06:32.556Z,99909.06
2022-09-14T16:11:36.624Z,100215.13
2022-09-14T16:16:40.762Z,100204.06
2022-09-14T16:21:45.350Z,100212.41
2022-09-14T16:26:48.409Z,100185.63
2022-09-14T16:31:53.162Z,100212.63
2022-09-14T16:36:58.502Z,100149.28
2022-09-14T16:42:04.525Z,100156.75
2022-09-14T16:47:09.788Z,100235.50
2022-09-14T16:52:12.485Z,100176.34
2022-09-14T16:57:15.549Z,100198.25
2022-09-14T17:02:22.951Z,100230.94
2022-09-14T17:07:25.723Z,100108.00
2022-09-14T17:12:31.504Z,100117.81
2022-09-14T17:17:35.714Z,100219.56
2022-09-14T17:22:38.425Z,100197.03
2022-09-14T17:27:41.245Z,100188.56
2022-09-14T17:32:45.240Z,100197.25
2022-09-14T17:37:47.931Z,100219.72
2022-09-14T17:42:50.582Z,100226.88
2022-09-14T17:47:54.888Z,100221.69
2022-09-14T17:52:57.845Z,100219.34
2022-09-14T17:58:08.114Z,100154.41
2022-09-14T18:03:12.239Z,100227.81
2022-09-14T18:08:14.865Z,100217.94
2022-09-14T18:13:17.629Z,100221.28
2022-09-14T18:18:23.299Z,100186.31
2022-09-14T18:23:26.501Z,100235.41
2022-09-14T18:28:30.094Z,100219.16
2022-09-14T18:33:34.342Z,100224.88
2022-09-14T18:38:36.999Z,100236.53
2022-09-14T18:43:43.905Z,100234.19
2022-09-14T18:48:54.573Z,100228.47
2022-09-14T18:53:58.055Z,100214.56
2022-09-14T18:59:01.722Z,100255.84
2022-09-14T19:04:07.923Z,100213.78
2022-09-14T19:09:10.814Z,100251.78
2022-09-14T19:14:15.243Z,100205.59
2022-09-14T19:19:19.498Z,100243.78
2022-09-14T19:24:22.252Z,100181.50
2022-09-14T19:29:26.121Z,100053.16
2022-09-14T19:34:30.522Z,100274.97
2022-09-14T19:39:36.082Z,100070.94
2022-09-14T19:44:43.412Z,100206.66
2022-09-14T19:49:51.020Z,99926.56
2022-09-14T19:54:56.355Z,99968.00
2022-09-14T19:59:59.170Z,100014.19
2022-09-14T20:05:03.187Z,100247.88
2022-09-14T20:10:06.715Z,100282.19
2022-09-14T20:15:10.345Z,100106.00
2022-09-14T20:20:15.710Z,100214.53
2022-09-14T20:25:18.425Z,100242.19
2022-09-14T20:30:21.241Z,100300.31
2022-09-14T20:35:25.376Z,100294.72
2022-09-14T20:40:28.950Z,100111.78
2022-09-14T20:45:31.674Z,100155.50
2022-09-14T20:50:35.622Z,100078.47
2022-09-14T20:55:38.760Z,100313.03
2022-09-14T21:00:44.346Z,100313.47
2022-09-14T21:05:48.697Z,100288.38
2022-09-14T21:10:54.035Z,100326.69
2022-09-14T21:15:56.640Z,100326.25
2022-09-14T21:21:05.606Z,100334.94
2022-09-14T21:26:09.806Z,100345.22
2022-09-14T21:31:14.993Z,100324.72
2022-09-14T21:36:21.115Z,100294.28
2022-09-14T21:41:26.595Z,100285.84
2022-09-14T21:46:29.711Z,100340.03
2022-09-14T21:51:37.577Z,100361.75
2022-09-14T21:56:41.758Z,100365.53
2022-09-14T22:01:45.426Z,100356.84
2022-09-14T22:06:51.283Z,100361.50
2022-09-14T22:11:55.926Z,100343.69
2022-09-14T22:16:58.595Z,100373.44
2022-09-14T22:22:03.710Z,100365.00
2022-09-14T22:27:09.826Z,100368.34
2022-09-14T22:32:12.931Z,100347.06
2022-09-14T22:37:16.968Z,100357.84
2022-09-14T22:42:19.639Z,100364.44
2022-09-14T22:47:22.250Z,100364.31
2022-09-14T22:52:29.115Z,100336.38
2022-09-14T22:57:31.834Z,100378.88
2022-09-14T23:02:34.492Z,100380.56
2022-09-14T23:07:38.510Z,100342.00
2022-09-14T23:12:41.233Z,100349.72
2022-09-14T23:17:45.187Z,100383.50
2022-09-14T23:22:51.723Z,100325.16
2022-09-14T23:27:54.329Z,100363.59
2022-09-14T23:32:57.020Z,100391.78
2022-09-14T23:38:00.969Z,100385.63
2022-09-14T23:43:03.563Z,100389.41
2022-09-14T23:48:06.286Z,100209.28
2022-09-14T23:53:10.325Z,100387.88
2022-09-14T23:58:13.006Z,100355.44
